Westport, Oklahoma
Current Conditions -  °F | °C
As of 8:15 AM on Monday 24 Nov 2014 (Local Time) from KOWP Reporting Station
Clear Clear  
Wind Chill:   Ceiling: Unl
Heat Index:   Visibility: 10mi
Dew Point: -2°   Wind: 7mph
Humidity: 60%   Direction: 280°W
Pressure: 29.89"   Gusts: NA
Location:  36.248°N, 96.4789°W
Report Text: KOWP 241415Z AUTO 28006KT 10SM CLR 05/M02 A2989 RMK AO2 T00511022
Loading
Personal Weather Stations






























Interactive Weather Map New forecast layout! Learn more

10-Day Weather Forecast

Advertisements
Track Severe Weather on mobile